createdAt,value
2023-02-19T00:03:09.303Z,4.00
2023-02-19T00:08:11.105Z,5.27
2023-02-19T00:13:13.127Z,5.63
2023-02-19T00:18:14.890Z,5.63
2023-02-19T00:23:16.969Z,6.73
2023-02-19T00:28:18.956Z,7.07
2023-02-19T00:33:20.977Z,7.67
2023-02-19T00:38:22.761Z,6.87
2023-02-19T00:43:24.733Z,8.00
2023-02-19T00:48:27.063Z,8.53
2023-02-19T00:53:28.985Z,8.13
2023-02-19T00:58:31.104Z,8.60
2023-02-19T01:03:37.368Z,7.77
2023-02-19T01:08:39.381Z,6.83
2023-02-19T01:13:42.157Z,7.47
2023-02-19T01:18:45.522Z,6.80
2023-02-19T01:23:49.034Z,7.17
2023-02-19T01:28:51.310Z,7.17
2023-02-19T01:33:58.863Z,7.10
2023-02-19T01:39:04.872Z,6.90
2023-02-19T01:44:17.060Z,5.93
2023-02-19T01:49:23.222Z,5.83
2023-02-19T01:54:29.508Z,6.30
2023-02-19T01:59:33.322Z,5.03
2023-02-19T02:04:35.849Z,4.83
2023-02-19T02:09:56.335Z,4.00
2023-02-19T02:14:58.337Z,4.63
2023-02-19T02:20:12.216Z,3.90
2023-02-19T02:25:30.342Z,3.50
2023-02-19T02:30:53.571Z,3.37
2023-02-19T02:36:08.293Z,3.43
2023-02-19T02:41:15.400Z,2.87
2023-02-19T02:46:29.622Z,3.30
2023-02-19T02:51:40.364Z,2.90
2023-02-19T02:56:49.856Z,2.77
2023-02-19T03:02:14.276Z,2.53
2023-02-19T03:07:16.865Z,2.70
2023-02-19T03:12:39.303Z,2.90
2023-02-19T03:18:07.497Z,2.43
2023-02-19T03:23:12.324Z,2.77
2023-02-19T03:28:17.894Z,3.03
2023-02-19T03:33:28.505Z,2.20
2023-02-19T03:38:49.278Z,2.60
2023-02-19T03:44:33.523Z,2.60
2023-02-19T03:49:39.844Z,2.13
2023-02-19T03:54:53.420Z,2.50
2023-02-19T04:00:10.925Z,1.90
2023-02-19T04:05:21.609Z,2.43
2023-02-19T04:10:24.371Z,2.60
2023-02-19T04:15:32.093Z,2.50
2023-02-19T04:20:40.680Z,1.83
2023-02-19T04:25:46.026Z,2.20
2023-02-19T04:30:48.147Z,2.40
2023-02-19T04:35:50.254Z,2.50
2023-02-19T04:40:52.307Z,1.80
2023-02-19T04:45:54.271Z,2.13
2023-02-19T04:50:56.319Z,2.50
2023-02-19T04:56:04.682Z,1.87
2023-02-19T05:01:07.248Z,1.97
2023-02-19T05:06:12.544Z,1.93
2023-02-19T05:11:14.620Z,2.27
2023-02-19T05:16:16.634Z,2.43
2023-02-19T05:21:19.164Z,1.80
2023-02-19T05:26:22.999Z,2.60
2023-02-19T05:31:25.330Z,2.77
2023-02-19T05:36:27.737Z,2.30
2023-02-19T05:41:30.998Z,2.10
2023-02-19T05:46:33.341Z,2.10
2023-02-19T05:51:35.233Z,2.27
2023-02-19T05:56:42.390Z,2.27
2023-02-19T06:01:44.308Z,2.40
2023-02-19T06:06:47.607Z,1.87
2023-02-19T06:11:49.736Z,2.63
2023-02-19T06:16:51.673Z,2.67
2023-02-19T06:21:53.672Z,2.47
2023-02-19T06:26:55.518Z,2.13
2023-02-19T06:31:57.532Z,2.57
2023-02-19T06:37:00.210Z,2.30
2023-02-19T06:42:02.269Z,2.43
2023-02-19T06:47:04.155Z,2.10
2023-02-19T06:52:06.497Z,2.60
2023-02-19T06:57:08.537Z,2.33
2023-02-19T07:02:13.817Z,1.90
2023-02-19T07:07:15.703Z,2.40
2023-02-19T07:12:17.636Z,2.60
2023-02-19T07:17:19.623Z,1.83
2023-02-19T07:22:21.577Z,2.63
2023-02-19T07:27:23.632Z,2.57
2023-02-19T07:32:25.468Z,2.33
2023-02-19T07:37:27.283Z,1.90
2023-02-19T07:42:29.073Z,2.00
2023-02-19T07:47:30.989Z,2.00
2023-02-19T07:52:34.358Z,2.37
2023-02-19T07:57:36.132Z,1.70
2023-02-19T08:02:56.908Z,1.93
2023-02-19T08:08:00.080Z,2.17
2023-02-19T08:13:24.080Z,2.40
2023-02-19T08:18:30.160Z,1.93
2023-02-19T08:23:32.724Z,2.30
2023-02-19T08:28:36.335Z,2.17
2023-02-19T08:33:49.438Z,2.70
2023-02-19T08:38:52.072Z,2.07
2023-02-19T08:43:54.289Z,1.80
2023-02-19T08:48:56.342Z,2.00
2023-02-19T08:53:58.381Z,2.77
2023-02-19T08:59:00.697Z,2.17
2023-02-19T09:04:02.645Z,1.93
2023-02-19T09:09:05.273Z,2.57
2023-02-19T09:14:10.367Z,1.90
2023-02-19T09:19:12.154Z,3.20
2023-02-19T09:24:14.245Z,2.17
2023-02-19T09:29:17.313Z,2.00
2023-02-19T09:34:19.904Z,2.23
2023-02-19T09:39:22.305Z,2.30
2023-02-19T09:44:27.871Z,2.27
2023-02-19T09:49:39.382Z,2.27
2023-02-19T09:54:42.520Z,2.00
2023-02-19T09:59:46.177Z,2.47
2023-02-19T10:04:51.263Z,2.23
2023-02-19T10:10:13.760Z,2.37
2023-02-19T10:15:39.059Z,2.30
2023-02-19T10:20:41.026Z,2.50
2023-02-19T10:25:51.782Z,1.97
2023-02-19T10:30:58.140Z,2.83
2023-02-19T10:36:02.313Z,2.47
2023-02-19T10:41:17.599Z,2.53
2023-02-19T10:46:26.408Z,2.40
2023-02-19T10:51:41.081Z,2.43
2023-02-19T10:56:44.639Z,1.83
2023-02-19T11:02:06.395Z,2.40
2023-02-19T11:07:17.429Z,2.70
2023-02-19T11:12:27.180Z,2.40
2023-02-19T11:17:30.520Z,2.83
2023-02-19T11:22:38.846Z,2.70
2023-02-19T11:28:07.291Z,2.90
2023-02-19T11:33:25.425Z,2.10
2023-02-19T11:38:27.990Z,2.90
2023-02-19T11:43:42.162Z,2.87
2023-02-19T11:48:54.703Z,2.73
2023-02-19T11:54:21.389Z,3.93
2023-02-19T11:59:48.790Z,2.90
2023-02-19T12:05:18.729Z,2.87
2023-02-19T12:11:03.443Z,2.53
2023-02-19T12:16:29.449Z,3.30
2023-02-19T12:21:43.981Z,2.63
2023-02-19T12:27:10.438Z,2.27
2023-02-19T12:32:39.112Z,2.70
2023-02-19T12:37:46.947Z,2.70
2023-02-19T12:42:51.049Z,2.93
2023-02-19T12:48:12.080Z,3.70
2023-02-19T12:53:30.609Z,3.83
2023-02-19T12:58:39.800Z,3.30
2023-02-19T13:03:49.832Z,2.30
2023-02-19T13:09:06.651Z,2.83
2023-02-19T13:14:11.852Z,2.20
2023-02-19T13:19:15.151Z,2.20
2023-02-19T13:24:34.648Z,2.00
2023-02-19T13:29:55.815Z,2.10
2023-02-19T13:35:20.744Z,2.40
2023-02-19T13:40:34.981Z,2.20
2023-02-19T13:45:43.447Z,2.27
2023-02-19T13:50:45.277Z,2.90
2023-02-19T13:55:51.810Z,2.87
2023-02-19T14:00:54.921Z,2.80
2023-02-19T14:06:07.447Z,2.63
2023-02-19T14:11:12.114Z,2.07
2023-02-19T14:16:55.211Z,2.33
2023-02-19T14:21:57.060Z,2.30
2023-02-19T14:27:00.361Z,2.33
2023-02-19T14:32:05.391Z,1.63
2023-02-19T14:37:17.906Z,8.43
2023-02-19T14:42:27.583Z,5.40
2023-02-19T14:47:34.488Z,2.77
2023-02-19T14:52:41.065Z,2.30
2023-02-19T14:57:48.795Z,1.47
2023-02-19T15:02:52.531Z,1.70
2023-02-19T15:07:57.590Z,1.67
2023-02-19T15:13:03.705Z,1.90
2023-02-19T15:18:06.151Z,2.33
2023-02-19T15:23:08.368Z,1.80
2023-02-19T15:28:25.392Z,1.60
2023-02-19T15:33:28.081Z,1.77
2023-02-19T15:38:30.546Z,1.50
2023-02-19T15:43:53.831Z,2.20
2023-02-19T15:49:04.670Z,2.03
2023-02-19T15:54:27.262Z,1.67
2023-02-19T15:59:43.876Z,1.80
2023-02-19T16:04:45.943Z,2.00
2023-02-19T16:09:47.867Z,2.77
2023-02-19T16:14:51.009Z,2.43
2023-02-19T16:20:01.416Z,3.23
2023-02-19T16:25:06.467Z,2.53
2023-02-19T16:30:27.028Z,2.73
2023-02-19T16:35:39.912Z,2.17
2023-02-19T16:41:04.515Z,2.97
2023-02-19T16:46:10.287Z,2.17
2023-02-19T16:51:20.906Z,2.23
2023-02-19T16:56:23.126Z,2.50
2023-02-19T17:01:26.738Z,3.20
2023-02-19T17:06:28.921Z,3.50
2023-02-19T17:11:30.931Z,2.87
2023-02-19T17:16:40.391Z,3.60
2023-02-19T17:21:43.026Z,3.20
2023-02-19T17:26:44.827Z,3.30
2023-02-19T17:31:46.945Z,2.90
2023-02-19T17:36:48.984Z,3.07
2023-02-19T17:41:51.348Z,3.93
2023-02-19T17:46:53.340Z,3.67
2023-02-19T17:51:55.119Z,3.87
2023-02-19T17:56:57.090Z,4.30
2023-02-19T18:01:59.034Z,4.07
2023-02-19T18:07:02.068Z,4.20
2023-02-19T18:12:04.464Z,4.00
2023-02-19T18:17:06.406Z,4.50
2023-02-19T18:22:08.320Z,4.07
2023-02-19T18:27:10.289Z,4.53
2023-02-19T18:32:12.131Z,4.70
2023-02-19T18:37:14.186Z,5.13
2023-02-19T18:42:16.292Z,4.53
2023-02-19T18:47:20.086Z,4.77
2023-02-19T18:52:24.911Z,4.87
2023-02-19T18:57:26.837Z,4.53
2023-02-19T19:02:36.415Z,4.83
2023-02-19T19:07:44.633Z,4.67
2023-02-19T19:12:46.734Z,4.37
2023-02-19T19:17:48.564Z,4.60
2023-02-19T19:22:52.655Z,4.60
2023-02-19T19:27:57.741Z,6.13
2023-02-19T19:33:01.713Z,5.77
2023-02-19T19:38:03.751Z,5.80
2023-02-19T19:43:05.895Z,5.63
2023-02-19T19:48:07.921Z,5.63
2023-02-19T19:53:10.072Z,4.90
2023-02-19T19:58:12.066Z,4.37
2023-02-19T20:03:14.120Z,5.00
2023-02-19T20:08:16.491Z,4.87
2023-02-19T20:13:20.880Z,5.37
2023-02-19T20:18:25.151Z,6.17
2023-02-19T20:23:27.613Z,7.93
2023-02-19T20:28:29.471Z,5.40
2023-02-19T20:33:31.423Z,4.73
2023-02-19T20:38:33.352Z,5.60
2023-02-19T20:43:35.172Z,4.63
2023-02-19T20:48:37.366Z,5.03
2023-02-19T20:53:41.800Z,5.20
2023-02-19T20:58:44.160Z,6.17
2023-02-19T21:03:45.969Z,7.73
2023-02-19T21:08:47.730Z,6.97
2023-02-19T21:13:49.805Z,6.87
2023-02-19T21:18:52.216Z,6.47
2023-02-19T21:23:55.868Z,7.17
2023-02-19T21:28:57.685Z,6.57
2023-02-19T21:33:59.606Z,7.43
2023-02-19T21:39:01.676Z,7.57
2023-02-19T21:44:04.042Z,8.20
2023-02-19T21:49:07.314Z,7.40
2023-02-19T21:54:21.616Z,7.53
2023-02-19T21:59:23.591Z,7.43
2023-02-19T22:04:25.500Z,7.50
2023-02-19T22:09:27.281Z,8.50
2023-02-19T22:14:29.301Z,7.97
2023-02-19T22:19:31.326Z,8.60
2023-02-19T22:24:33.142Z,8.83
2023-02-19T22:29:34.979Z,8.13
2023-02-19T22:34:41.752Z,9.07
2023-02-19T22:39:44.501Z,8.47
2023-02-19T22:44:46.466Z,9.47
2023-02-19T22:49:48.369Z,10.33
2023-02-19T22:54:52.423Z,9.13
2023-02-19T22:59:54.191Z,10.53
2023-02-19T23:04:55.951Z,10.27
2023-02-19T23:09:57.728Z,9.87
2023-02-19T23:14:59.697Z,9.57
2023-02-19T23:20:01.927Z,8.30
2023-02-19T23:25:04.472Z,8.73
2023-02-19T23:30:07.023Z,7.20
2023-02-19T23:35:08.975Z,6.60
2023-02-19T23:40:12.033Z,7.57
2023-02-19T23:45:16.331Z,7.73
2023-02-19T23:50:18.379Z,6.70
2023-02-19T23:55:20.214Z,8.07
